createdAt,value
2023-03-05T00:03:52.439Z,97810.22
2023-03-05T00:08:53.740Z,97799.56
2023-03-05T00:13:54.974Z,97790.19
2023-03-05T00:18:56.241Z,97791.72
2023-03-05T00:23:57.472Z,97790.91
2023-03-05T00:28:58.830Z,97781.63
2023-03-05T00:34:00.168Z,97783.44
2023-03-05T00:39:01.511Z,97788.63
2023-03-05T00:44:03.067Z,97787.84
2023-03-05T00:49:04.412Z,97772.00
2023-03-05T00:54:05.840Z,97778.66
2023-03-05T00:59:07.165Z,97786.97
2023-03-05T01:04:08.414Z,97781.94
2023-03-05T01:09:09.788Z,97770.00
2023-03-05T01:14:11.083Z,97767.44
2023-03-05T01:19:12.337Z,97758.06
2023-03-05T01:24:13.773Z,97754.56
2023-03-05T01:29:15.026Z,97747.03
2023-03-05T01:34:16.241Z,97751.13
2023-03-05T01:39:17.593Z,97746.69
2023-03-05T01:44:18.834Z,97738.59
2023-03-05T01:49:20.098Z,97724.25
2023-03-05T01:54:21.361Z,97728.66
2023-03-05T01:59:22.609Z,97724.28
2023-03-05T02:04:23.889Z,97729.44
2023-03-05T02:09:25.098Z,97730.22
2023-03-05T02:14:26.425Z,97727.03
2023-03-05T02:19:27.748Z,97722.72
2023-03-05T02:24:29.032Z,97723.50
2023-03-05T02:29:30.522Z,97719.31
2023-03-05T02:34:31.760Z,97721.88
2023-03-05T02:39:33.310Z,97723.56
2023-03-05T02:44:34.565Z,97719.31
2023-03-05T02:49:35.835Z,97720.91
2023-03-05T02:54:37.182Z,97718.31
2023-03-05T02:59:38.666Z,97714.81
2023-03-05T03:04:39.958Z,97714.94
2023-03-05T03:09:42.746Z,97721.72
2023-03-05T03:14:44.210Z,97720.03
2023-03-05T03:19:45.460Z,97718.47
2023-03-05T03:24:46.706Z,97720.81
2023-03-05T03:29:47.960Z,97713.22
2023-03-05T03:34:49.208Z,97710.28
2023-03-05T03:39:50.466Z,97707.66
2023-03-05T03:44:51.711Z,97700.00
2023-03-05T03:49:52.956Z,97694.84
2023-03-05T03:54:55.714Z,97686.16
2023-03-05T03:59:57.078Z,97688.41
2023-03-05T04:04:58.436Z,97682.22
2023-03-05T04:09:59.664Z,97676.69
2023-03-05T04:15:01.016Z,97676.72
2023-03-05T04:20:02.321Z,97663.00
2023-03-05T04:25:06.473Z,97671.03
2023-03-05T04:30:07.685Z,97663.63
2023-03-05T04:35:08.914Z,97668.34
2023-03-05T04:40:10.317Z,97659.84
2023-03-05T04:45:11.553Z,97664.47
2023-03-05T04:50:12.832Z,97655.25
2023-03-05T04:55:14.089Z,97651.38
2023-03-05T05:00:15.334Z,97642.53
2023-03-05T05:05:16.527Z,97634.84
2023-03-05T05:10:17.748Z,97632.84
2023-03-05T05:15:18.997Z,97630.13
2023-03-05T05:20:20.255Z,97631.91
2023-03-05T05:25:21.502Z,97622.31
2023-03-05T05:30:22.759Z,97624.03
2023-03-05T05:35:24.074Z,97622.50
2023-03-05T05:40:25.330Z,97623.16
2023-03-05T05:45:26.714Z,97630.38
2023-03-05T05:50:28.079Z,97623.69
2023-03-05T05:55:29.354Z,97619.44
2023-03-05T06:00:30.600Z,97623.56
2023-03-05T06:05:31.865Z,97624.13
2023-03-05T06:10:33.386Z,97633.16
2023-03-05T06:15:34.617Z,97629.81
2023-03-05T06:20:35.847Z,97629.91
2023-03-05T06:25:37.037Z,97627.19
2023-03-05T06:30:38.349Z,97625.34
2023-03-05T06:35:42.764Z,97614.25
2023-03-05T06:40:44.074Z,97616.78
2023-03-05T06:45:45.296Z,97614.41
2023-03-05T06:50:46.590Z,97610.06
2023-03-05T06:55:47.843Z,97607.56
2023-03-05T07:00:49.090Z,97611.53
2023-03-05T07:05:50.371Z,97605.41
2023-03-05T07:10:51.580Z,97605.56
2023-03-05T07:15:52.798Z,97605.72
2023-03-05T07:20:55.427Z,97598.81
2023-03-05T07:25:56.718Z,97600.47
2023-03-05T07:30:58.073Z,97597.97
2023-03-05T07:35:59.376Z,97586.59
2023-03-05T07:41:00.664Z,97594.28
2023-03-05T07:46:01.975Z,97592.63
2023-03-05T07:51:03.336Z,97584.66
2023-03-05T07:56:04.620Z,97579.78
2023-03-05T08:01:05.887Z,97582.25
2023-03-05T08:06:07.201Z,97571.16
2023-03-05T08:11:08.692Z,97574.75
2023-03-05T08:16:09.998Z,97575.44
2023-03-05T08:21:12.349Z,97565.88
2023-03-05T08:26:13.722Z,97560.88
2023-03-05T08:31:15.042Z,97557.91
2023-03-05T08:36:16.322Z,97567.94
2023-03-05T08:41:17.528Z,97562.81
2023-03-05T08:46:18.794Z,97562.13
2023-03-05T08:51:20.091Z,97560.81
2023-03-05T08:56:21.430Z,97559.19
2023-03-05T09:01:23.847Z,97547.19
2023-03-05T09:06:25.242Z,97547.50
2023-03-05T09:11:26.493Z,97541.06
2023-03-05T09:16:27.851Z,97537.44
2023-03-05T09:21:29.112Z,97530.88
2023-03-05T09:26:30.645Z,97527.09
2023-03-05T09:31:31.954Z,97523.72
2023-03-05T09:36:33.264Z,97513.63
2023-03-05T09:41:36.016Z,97504.34
2023-03-05T09:46:39.022Z,97504.25
2023-03-05T09:51:41.512Z,97500.53
2023-03-05T09:56:42.767Z,97501.34
2023-03-05T10:01:44.238Z,97491.69
2023-03-05T10:06:45.540Z,97494.13
2023-03-05T10:11:46.779Z,97490.22
2023-03-05T10:16:50.999Z,97477.72
2023-03-05T10:21:52.370Z,97470.59
2023-03-05T10:26:53.765Z,97466.13
2023-03-05T10:31:55.054Z,97465.41
2023-03-05T10:36:58.144Z,97463.06
2023-03-05T10:42:02.573Z,97458.59
2023-03-05T10:47:03.910Z,97460.84
2023-03-05T10:52:05.233Z,97447.03
2023-03-05T10:57:06.528Z,97442.03
2023-03-05T11:02:08.749Z,97437.47
2023-03-05T11:07:10.168Z,97429.19
2023-03-05T11:12:11.488Z,97428.75
2023-03-05T11:17:12.764Z,97420.72
2023-03-05T11:22:14.271Z,97419.94
2023-03-05T11:27:15.625Z,97402.53
2023-03-05T11:32:16.872Z,97405.03
2023-03-05T11:37:20.228Z,97395.16
2023-03-05T11:42:25.450Z,97382.19
2023-03-05T11:47:26.802Z,97383.06
2023-03-05T11:52:28.088Z,97378.22
2023-03-05T11:57:36.792Z,97371.16
2023-03-05T12:02:39.730Z,97369.00
2023-03-05T12:07:41.158Z,97365.47
2023-03-05T12:12:45.943Z,97355.00
2023-03-05T12:17:47.263Z,97350.38
2023-03-05T12:22:48.563Z,97348.50
2023-03-05T12:27:49.911Z,97343.91
2023-03-05T12:32:51.267Z,97333.63
2023-03-05T12:37:52.572Z,97343.09
2023-03-05T12:42:54.075Z,97333.06
2023-03-05T12:47:55.349Z,97331.31
2023-03-05T12:52:56.788Z,97320.28
2023-03-05T12:57:58.189Z,97319.41
2023-03-05T13:02:59.479Z,97314.50
2023-03-05T13:08:03.812Z,97312.22
2023-03-05T13:13:05.583Z,97318.19
2023-03-05T13:18:08.552Z,97310.44
2023-03-05T13:23:10.445Z,97305.84
2023-03-05T13:28:14.016Z,97316.25
2023-03-05T13:33:15.452Z,97303.50
2023-03-05T13:38:16.916Z,97290.16
2023-03-05T13:43:21.217Z,97283.78
2023-03-05T13:48:22.838Z,97293.31
2023-03-05T13:53:26.680Z,97274.19
2023-03-05T13:58:27.961Z,97274.72
2023-03-05T14:03:30.239Z,97264.19
2023-03-05T14:08:33.944Z,97258.25
2023-03-05T14:13:35.208Z,97262.78
2023-03-05T14:18:37.660Z,97255.34
2023-03-05T14:23:41.153Z,97237.28
2023-03-05T14:28:42.981Z,97228.78
2023-03-05T14:33:44.319Z,97223.44
2023-03-05T14:38:50.637Z,97209.09
2023-03-05T14:43:51.950Z,97202.94
2023-03-05T14:48:54.135Z,97194.09
2023-03-05T14:53:55.465Z,97189.81
2023-03-05T14:58:57.641Z,97185.03
2023-03-05T15:03:59.033Z,97174.75
2023-03-05T15:09:05.548Z,97166.19
2023-03-05T15:14:06.852Z,97164.94
2023-03-05T15:19:08.181Z,97151.72
2023-03-05T15:24:11.272Z,97142.69
2023-03-05T15:29:12.931Z,97124.72
2023-03-05T15:34:14.328Z,97129.31
2023-03-05T15:39:15.633Z,97127.50
2023-03-05T15:44:16.872Z,97121.97
2023-03-05T15:49:18.218Z,97108.22
2023-03-05T15:54:19.892Z,97111.06
2023-03-05T15:59:21.132Z,97109.88
2023-03-05T16:04:22.496Z,97101.69
2023-03-05T16:09:23.696Z,97098.88
2023-03-05T16:14:24.945Z,97094.56
2023-03-05T16:19:26.185Z,97089.91
2023-03-05T16:24:27.423Z,97087.84
2023-03-05T16:29:30.808Z,97101.44
2023-03-05T16:34:34.449Z,97098.06
2023-03-05T16:39:35.911Z,97083.31
2023-03-05T16:44:37.186Z,97075.09
2023-03-05T16:49:39.696Z,97070.78
2023-03-05T16:54:41.479Z,97062.41
2023-03-05T16:59:43.752Z,97059.78
2023-03-05T17:04:46.693Z,97060.69
2023-03-05T17:09:50.307Z,97051.59
2023-03-05T17:14:51.532Z,97050.59
2023-03-05T17:19:52.772Z,97046.53
2023-03-05T17:24:54.306Z,97048.53
2023-03-05T17:30:00.513Z,97051.78
2023-03-05T17:35:05.524Z,97052.34
2023-03-05T17:40:07.812Z,97058.03
2023-03-05T17:45:09.206Z,97050.97
2023-03-05T17:50:14.908Z,97051.53
2023-03-05T17:55:17.357Z,97056.56
2023-03-05T18:00:18.650Z,97059.41
2023-03-05T18:05:19.958Z,97053.84
2023-03-05T18:10:21.210Z,97048.69
2023-03-05T18:15:23.520Z,97054.53
2023-03-05T18:20:24.823Z,97047.38
2023-03-05T18:25:31.319Z,97052.09
2023-03-05T18:30:33.743Z,97052.50
2023-03-05T18:35:35.144Z,97044.44
2023-03-05T18:40:36.465Z,97036.72
2023-03-05T18:45:38.121Z,97038.03
2023-03-05T18:50:39.835Z,97028.38
2023-03-05T18:55:44.927Z,97032.59
2023-03-05T19:00:47.056Z,97023.50
2023-03-05T19:05:50.162Z,97031.09
2023-03-05T19:10:51.545Z,97032.94
2023-03-05T19:15:53.230Z,97031.66
2023-03-05T19:20:54.780Z,97035.00
2023-03-05T19:25:56.191Z,97032.59
2023-03-05T19:30:57.602Z,97028.38
2023-03-05T19:36:00.165Z,97027.06
2023-03-05T19:41:01.510Z,97021.09
2023-03-05T19:46:02.945Z,97021.06
2023-03-05T19:51:04.248Z,97021.16
2023-03-05T19:56:06.411Z,97018.13
2023-03-05T20:01:07.783Z,97008.56
2023-03-05T20:06:09.569Z,97002.44
2023-03-05T20:11:12.167Z,96996.50
2023-03-05T20:16:15.067Z,97002.88
2023-03-05T20:21:21.447Z,96997.81
2023-03-05T20:26:22.904Z,96994.75
2023-03-05T20:31:24.320Z,96996.78
2023-03-05T20:36:25.877Z,96983.53
2023-03-05T20:41:27.262Z,96974.56
2023-03-05T20:46:28.776Z,96977.25
2023-03-05T20:51:31.865Z,96977.34
2023-03-05T20:56:33.215Z,96969.13
2023-03-05T21:01:34.615Z,96972.91
2023-03-05T21:06:36.052Z,96967.72
2023-03-05T21:11:38.071Z,96961.19
2023-03-05T21:16:39.374Z,96961.59
2023-03-05T21:21:44.803Z,96962.13
2023-03-05T21:26:46.414Z,96959.22
2023-03-05T21:31:47.772Z,96969.56
2023-03-05T21:36:49.032Z,96968.81
2023-03-05T21:41:50.306Z,96957.78
2023-03-05T21:46:51.525Z,96964.94
2023-03-05T21:52:22.235Z,96957.66
2023-03-05T21:57:23.502Z,96951.34
2023-03-05T22:02:24.841Z,96956.69
2023-03-05T22:07:27.789Z,96937.00
2023-03-05T22:12:47.768Z,96940.72
2023-03-05T22:17:49.078Z,96936.94
2023-03-05T22:22:50.309Z,96940.78
2023-03-05T22:27:51.516Z,96934.72
2023-03-05T22:32:52.809Z,96924.91
2023-03-05T22:37:54.090Z,96913.69
2023-03-05T22:42:55.356Z,96922.50
2023-03-05T22:47:56.727Z,96927.75
2023-03-05T22:52:58.218Z,96926.00
2023-03-05T22:57:59.467Z,96929.94
2023-03-05T23:03:00.725Z,96926.84
2023-03-05T23:08:02.013Z,96918.44
2023-03-05T23:13:03.316Z,96916.59
2023-03-05T23:18:04.528Z,96909.63
2023-03-05T23:23:05.797Z,96909.13
2023-03-05T23:28:07.101Z,96898.00
2023-03-05T23:33:08.396Z,96887.47
2023-03-05T23:38:09.618Z,96880.72
2023-03-05T23:43:10.942Z,96884.34
2023-03-05T23:48:12.202Z,96872.97
2023-03-05T23:53:13.475Z,96877.75
2023-03-05T23:58:14.771Z,96869.00
